Time;durP1;ratioP1;P1;durP2;ratioP2;P2;SDS_P1;SDS_P2;PMS_P1;PMS_P2;Temp;Humidity;BMP_temperature;BMP_pressure;BME280_temperature;BME280_humidity;BME280_pressure;Samples;Min_cycle;Max_cycle;Signal;HPM_P1;HPM_P2
2021/09/16 00:01:00;;;;;;;8.18;7.35;;;;;;;23.07;43.98;100015.20;1777394;78;21010;-55
2021/09/16 00:03:28;;;;;;;7.55;6.15;;;;;;;23.07;43.97;100017.91;1790724;78;21089;-55
2021/09/16 00:05:54;;;;;;;8.23;6.70;;;;;;;23.07;44.03;100015.20;1802353;78;21352;-55
2021/09/16 00:08:20;;;;;;;8.75;7.00;;;;;;;23.05;43.97;100021.41;1790845;79;21112;-54
2021/09/16 00:10:49;;;;;;;9.93;6.87;;;;;;;23.04;43.99;100016.49;1795490;79;21174;-55
2021/09/16 00:13:15;;;;;;;8.63;6.58;;;;;;;23.03;44.03;100020.28;1793359;78;21052;-55
2021/09/16 00:15:42;;;;;;;8.73;7.33;;;;;;;23.03;44.06;100016.22;1798266;78;21635;-55
2021/09/16 00:18:08;;;;;;;7.75;6.95;;;;;;;23.02;44.05;100021.30;1792008;78;21652;-56
2021/09/16 00:20:35;;;;;;;9.53;7.25;;;;;;;23.02;44.04;100023.20;1800020;79;23320;-55
2021/09/16 00:23:01;;;;;;;10.18;6.90;;;;;;;23.01;44.02;100024.28;1787453;79;21021;-55
2021/09/16 00:25:29;;;;;;;7.97;6.80;;;;;;;23.00;43.99;100020.73;1792533;79;21037;-55
2021/09/16 00:27:59;;;;;;;8.68;6.42;;;;;;;23.00;44.00;100022.63;1795599;78;21057;-55
2021/09/16 00:30:25;;;;;;;8.10;6.65;;;;;;;22.99;44.03;100018.28;1786522;78;21072;-55
2021/09/16 00:32:52;;;;;;;9.08;7.03;;;;;;;22.98;44.01;100022.86;1816283;78;21249;-57
2021/09/16 00:35:20;;;;;;;7.72;6.67;;;;;;;22.97;44.00;100022.05;1803982;78;21019;-55
2021/09/16 00:37:47;;;;;;;8.03;6.75;;;;;;;22.97;43.91;100022.59;1770934;78;21030;-55
2021/09/16 00:40:15;;;;;;;8.68;7.08;;;;;;;22.96;43.89;100025.80;1818696;78;21029;-54
2021/09/16 00:42:43;;;;;;;10.90;7.65;;;;;;;22.95;43.88;100028.24;1819325;78;21077;-55
2021/09/16 00:45:11;;;;;;;10.23;7.25;;;;;;;22.94;43.87;100030.65;1814843;78;21137;-55
2021/09/16 00:47:43;;;;;;;8.23;6.83;;;;;;;22.94;43.85;100033.36;1755900;79;21023;-55
2021/09/16 00:50:12;;;;;;;12.83;7.43;;;;;;;22.93;43.78;100036.33;1768237;80;21541;-56
2021/09/16 00:52:39;;;;;;;7.72;6.90;;;;;;;22.91;43.78;100036.57;1800767;78;21741;-54
2021/09/16 00:55:09;;;;;;;9.53;6.62;;;;;;;22.91;43.72;100036.57;1824622;78;21103;-55
2021/09/16 00:57:38;;;;;;;9.40;6.78;;;;;;;22.88;43.75;100032.98;1805397;78;21118;-56
2021/09/16 01:00:07;;;;;;;8.23;6.85;;;;;;;22.88;43.71;100031.62;1812924;78;21442;-55
2021/09/16 01:02:36;;;;;;;8.45;7.47;;;;;;;22.87;43.69;100034.56;1817378;78;21032;-56
2021/09/16 01:05:05;;;;;;;10.35;8.30;;;;;;;22.85;43.67;100038.89;1802243;78;21012;-54
2021/09/16 01:07:31;;;;;;;8.35;7.40;;;;;;;22.84;43.69;100033.72;1816025;78;21037;-55
2021/09/16 01:10:00;;;;;;;10.30;7.28;;;;;;;22.83;43.61;100030.70;1808795;78;21129;-55
2021/09/16 01:12:28;;;;;;;9.85;7.78;;;;;;;22.82;43.60;100029.08;1800958;79;21040;-56
2021/09/16 01:14:54;;;;;;;8.58;7.47;;;;;;;22.80;43.61;100032.02;1798638;79;21028;-55
2021/09/16 01:17:22;;;;;;;10.00;7.87;;;;;;;22.80;43.56;100033.37;1794346;79;21024;-55
2021/09/16 01:19:50;;;;;;;10.53;7.42;;;;;;;22.78;43.54;100030.90;1805276;78;21049;-55
2021/09/16 01:22:22;;;;;;;9.50;7.60;;;;;;;22.78;43.55;100031.44;1791047;78;21558;-55
2021/09/16 01:24:50;;;;;;;11.38;7.65;;;;;;;22.77;43.56;100033.33;1797704;78;21157;-56
2021/09/16 01:27:20;;;;;;;8.10;7.33;;;;;;;22.76;43.52;100022.73;1791467;80;21072;-55
2021/09/16 01:29:50;;;;;;;9.20;7.12;;;;;;;22.74;43.56;100021.62;1813400;78;21081;-56
2021/09/16 01:32:16;;;;;;;9.83;7.60;;;;;;;22.73;43.56;100015.89;1819292;78;21036;-55
2021/09/16 01:34:43;;;;;;;9.10;7.22;;;;;;;22.73;43.57;100020.50;1823897;78;21052;-56
2021/09/16 01:37:13;;;;;;;9.35;8.38;;;;;;;22.72;43.57;100020.22;1818440;78;21057;-55
2021/09/16 01:39:40;;;;;;;9.03;7.65;;;;;;;22.70;43.61;100016.94;1800262;79;21069;-55
2021/09/16 01:42:08;;;;;;;10.48;7.35;;;;;;;22.70;43.63;100020.46;1800847;78;21037;-55
2021/09/16 01:44:34;;;;;;;8.15;7.37;;;;;;;22.70;43.65;100014.23;1796507;79;21112;-56
2021/09/16 01:47:04;;;;;;;8.98;8.03;;;;;;;22.69;43.59;100016.63;1795638;79;21056;-55
2021/09/16 01:49:32;;;;;;;10.10;8.03;;;;;;;22.69;43.60;100013.92;1794670;79;21029;-56
2021/09/16 01:52:01;;;;;;;9.88;7.90;;;;;;;22.68;43.66;100015.00;1765119;78;21141;-55
2021/09/16 01:54:27;;;;;;;9.50;7.70;;;;;;;22.67;43.63;100010.09;1809016;78;21142;-57
2021/09/16 01:56:55;;;;;;;9.58;7.75;;;;;;;22.67;43.63;100014.16;1825490;78;21008;-55
2021/09/16 01:59:22;;;;;;;8.80;7.40;;;;;;;22.67;43.60;100014.70;1789291;78;21149;-55
2021/09/16 02:01:49;;;;;;;9.45;7.87;;;;;;;22.67;43.61;100012.80;1804710;78;21014;-55
2021/09/16 02:04:17;;;;;;;8.85;6.70;;;;;;;22.67;43.65;100010.64;1778589;80;21600;-56
2021/09/16 02:06:43;;;;;;;8.43;7.28;;;;;;;22.66;43.58;100010.36;1815575;78;21049;-55
2021/09/16 02:09:09;;;;;;;9.15;7.62;;;;;;;22.65;43.64;100012.23;1818413;78;21524;-55
2021/09/16 02:11:36;;;;;;;11.15;7.58;;;;;;;22.65;43.63;100024.41;1814427;78;21136;-55
2021/09/16 02:14:06;;;;;;;8.18;7.17;;;;;;;22.65;43.63;100024.95;1779921;80;21045;-55
2021/09/16 02:16:32;;;;;;;10.28;7.50;;;;;;;22.64;43.56;100020.59;1780725;79;21734;-55
2021/09/16 02:19:02;;;;;;;8.25;6.97;;;;;;;22.64;43.59;100019.23;1786895;79;21536;-55
2021/09/16 02:21:30;;;;;;;9.53;7.80;;;;;;;22.62;43.59;100014.08;1792085;80;21048;-54
2021/09/16 02:24:00;;;;;;;9.65;7.67;;;;;;;22.62;43.57;100009.17;1781029;80;22196;-55
2021/09/16 02:26:26;;;;;;;10.35;7.55;;;;;;;22.62;43.63;100010.53;1814499;78;21068;-56
2021/09/16 02:28:52;;;;;;;10.10;8.50;;;;;;;22.62;43.58;100007.82;1818437;78;22029;-55
2021/09/16 02:31:19;;;;;;;9.20;7.45;;;;;;;22.60;43.58;100004.02;1801362;78;21128;-55
2021/09/16 02:33:47;;;;;;;8.10;7.00;;;;;;;22.60;43.63;100008.09;1786237;79;21009;-56
2021/09/16 02:36:13;;;;;;;8.33;7.22;;;;;;;22.60;43.55;100005.38;1776472;78;21208;-55
2021/09/16 02:38:42;;;;;;;10.32;7.65;;;;;;;22.57;43.60;100002.59;1811055;78;20982;-56
2021/09/16 02:41:08;;;;;;;9.55;6.92;;;;;;;22.58;43.59;100004.27;1792900;78;20998;-56
2021/09/16 02:43:36;;;;;;;10.15;7.42;;;;;;;22.58;43.59;100008.86;1811811;78;21002;-55
2021/09/16 02:46:04;;;;;;;9.00;7.47;;;;;;;22.57;43.60;100006.66;1819441;78;21033;-55
2021/09/16 02:48:30;;;;;;;9.15;7.83;;;;;;;22.56;43.62;100002.33;1827379;78;21213;-55
2021/09/16 02:50:57;;;;;;;11.75;7.53;;;;;;;22.57;43.54;100001.25;1824650;78;21025;-55
2021/09/16 02:53:24;;;;;;;9.73;8.03;;;;;;;22.57;43.54;100004.50;1775053;80;21026;-55
2021/09/16 02:55:50;;;;;;;10.80;8.18;;;;;;;22.57;43.55;100001.78;1789491;79;21006;-55
2021/09/16 02:58:16;;;;;;;15.23;7.70;;;;;;;22.56;43.49;99996.91;1796711;79;21028;-55
2021/09/16 03:00:43;;;;;;;10.25;7.78;;;;;;;22.56;43.51;100006.89;1797464;79;21941;-57
2021/09/16 03:03:09;;;;;;;12.40;8.40;;;;;;;22.56;43.53;100001.48;1796515;78;21021;-56
2021/09/16 03:05:36;;;;;;;13.08;7.80;;;;;;;22.54;43.57;99999.04;1797816;79;21041;-55
2021/09/16 03:08:44;;;;;;;9.65;7.75;;;;;;;22.59;43.64;99991.53;1865386;75;22461;-55
2021/09/16 03:11:11;;;;;;;12.68;7.28;;;;;;;22.54;43.61;99989.56;1852200;76;21532;-55
2021/09/16 03:13:39;;;;;;;11.55;8.03;;;;;;;22.55;43.66;99989.02;1865599;75;21024;-55
2021/09/16 03:16:06;;;;;;;14.23;8.38;;;;;;;22.55;43.67;99974.95;1840920;75;21042;-55
2021/09/16 03:18:33;;;;;;;10.48;7.78;;;;;;;22.55;43.71;99973.59;1845049;75;21005;-57
2021/09/16 03:21:00;;;;;;;10.45;7.42;;;;;;;22.56;43.74;99976.61;1840385;77;20977;-56
2021/09/16 03:23:26;;;;;;;8.30;7.33;;;;;;;22.57;43.66;99971.47;1859806;75;21057;-55
2021/09/16 03:25:53;;;;;;;8.60;7.10;;;;;;;22.58;43.84;99975.83;1853382;75;21106;-55
2021/09/16 03:28:22;;;;;;;12.53;7.67;;;;;;;22.60;43.91;99981.02;1837152;77;20899;-56
2021/09/16 03:30:48;;;;;;;11.48;6.95;;;;;;;22.61;43.83;99992.66;1840396;75;21648;-55
2021/09/16 03:33:14;;;;;;;9.85;6.92;;;;;;;22.61;43.85;100005.66;1829075;75;21045;-55
2021/09/16 03:35:41;;;;;;;9.93;7.08;;;;;;;22.61;43.88;100016.48;1853032;75;21036;-55
2021/09/16 03:38:08;;;;;;;11.53;7.70;;;;;;;22.61;43.94;100024.61;1840117;75;21119;-54
2021/09/16 03:40:35;;;;;;;8.63;6.55;;;;;;;22.61;44.08;100024.61;1838019;75;21497;-55
2021/09/16 03:43:01;;;;;;;9.95;7.65;;;;;;;22.62;44.18;100020.85;1865334;75;21080;-55
2021/09/16 03:45:28;;;;;;;9.15;6.58;;;;;;;22.63;44.19;100019.77;1854377;75;21510;-54
2021/09/16 03:47:55;;;;;;;9.13;6.83;;;;;;;22.65;44.22;100020.89;1849424;75;21639;-55
2021/09/16 03:50:23;;;;;;;9.95;7.28;;;;;;;22.65;44.17;100018.18;1865644;75;21052;-56
2021/09/16 03:52:49;;;;;;;12.30;7.50;;;;;;;22.66;44.22;100017.95;1846156;75;21025;-55
2021/09/16 03:55:16;;;;;;;10.20;6.80;;;;;;;22.66;44.19;100023.91;1838895;75;21034;-57
2021/09/16 03:57:44;;;;;;;9.05;7.45;;;;;;;22.67;44.25;100028.23;1850483;75;21045;-55
2021/09/16 04:00:12;;;;;;;8.18;7.30;;;;;;;22.67;44.27;100029.05;1857654;76;21022;-56
2021/09/16 04:02:39;;;;;;;7.97;6.50;;;;;;;22.68;44.29;100033.95;1856515;75;21716;-57
2021/09/16 04:05:09;;;;;;;11.20;6.78;;;;;;;22.68;44.30;100038.84;1840197;75;21065;-55
2021/09/16 04:07:36;;;;;;;8.30;7.03;;;;;;;22.70;44.40;100046.73;1830641;75;21036;-55
2021/09/16 04:10:03;;;;;;;11.33;6.83;;;;;;;22.71;44.45;100052.41;1851821;75;21037;-54
2021/09/16 04:12:32;;;;;;;9.90;7.12;;;;;;;22.72;44.50;100058.13;1841658;75;21021;-54
2021/09/16 04:15:00;;;;;;;7.97;7.17;;;;;;;22.73;44.67;100058.41;1846991;75;21037;-55
2021/09/16 04:17:26;;;;;;;7.55;6.12;;;;;;;22.75;44.69;100053.06;1841632;75;21630;-54
2021/09/16 04:19:52;;;;;;;11.43;6.15;;;;;;;22.76;44.67;100047.92;1848776;75;21060;-59
2021/09/16 04:22:20;;;;;;;9.18;6.78;;;;;;;22.80;44.56;100044.75;1865402;75;20970;-54
2021/09/16 04:24:47;;;;;;;8.30;6.17;;;;;;;22.81;44.56;100043.66;1846051;76;20993;-55
2021/09/16 04:27:13;;;;;;;10.13;6.50;;;;;;;22.83;45.00;100053.22;1852713;75;21129;-59
2021/09/16 04:29:41;;;;;;;9.83;6.50;;;;;;;22.86;45.41;100054.06;1847109;76;21080;-57
2021/09/16 04:32:09;;;;;;;10.10;6.85;;;;;;;22.89;45.53;100056.81;1841595;76;21382;-54
2021/09/16 04:34:36;;;;;;;9.40;6.05;;;;;;;22.90;45.73;100055.22;1850435;75;21033;-53
2021/09/16 04:37:02;;;;;;;13.55;6.30;;;;;;;22.94;45.89;100052.86;1855751;76;21528;-55
2021/09/16 04:39:29;;;;;;;9.65;6.47;;;;;;;22.97;46.09;100065.39;1838189;76;21121;-59
2021/09/16 04:41:57;;;;;;;10.93;5.90;;;;;;;23.02;46.13;100055.71;1847295;76;21131;-55
2021/09/16 04:44:23;;;;;;;9.88;6.12;;;;;;;23.06;46.22;100055.55;1849622;76;21064;-57
2021/09/16 04:46:50;;;;;;;10.50;6.25;;;;;;;23.03;45.29;100060.11;1844852;76;21133;-55
2021/09/16 04:49:17;;;;;;;11.28;5.97;;;;;;;22.99;45.72;100057.57;1844581;76;21012;-55
2021/09/16 04:51:44;;;;;;;11.35;6.08;;;;;;;22.99;45.81;100063.80;1844303;76;21762;-56
2021/09/16 04:54:11;;;;;;;9.25;6.58;;;;;;;23.01;45.77;100056.80;1839633;76;20987;-55
2021/09/16 04:56:37;;;;;;;10.63;6.37;;;;;;;23.03;45.76;100059.57;1862899;76;21044;-56
2021/09/16 04:59:05;;;;;;;6.40;5.47;;;;;;;23.05;45.72;100057.98;1837810;76;21047;-56
2021/09/16 05:01:33;;;;;;;9.38;6.17;;;;;;;23.07;45.68;100062.08;1859533;76;21055;-56
2021/09/16 05:04:02;;;;;;;8.33;6.30;;;;;;;23.09;45.61;100061.30;1854670;76;21500;-56
2021/09/16 05:06:30;;;;;;;9.18;6.58;;;;;;;23.11;45.54;100059.17;1859310;76;20995;-55
2021/09/16 05:08:57;;;;;;;7.35;6.37;;;;;;;23.13;45.47;100061.10;1858693;76;21365;-56
2021/09/16 05:11:23;;;;;;;8.10;6.25;;;;;;;23.14;45.42;100050.56;1850570;76;21013;-56
2021/09/16 05:13:51;;;;;;;8.20;5.67;;;;;;;23.17;45.43;100050.60;1854398;76;21544;-55
2021/09/16 05:16:18;;;;;;;6.62;5.50;;;;;;;23.20;45.37;100047.42;1833682;76;21516;-55
2021/09/16 05:18:46;;;;;;;12.95;5.40;;;;;;;23.22;45.35;100043.93;1837420;75;21028;-56
2021/09/16 05:21:12;;;;;;;8.00;6.30;;;;;;;23.25;45.27;100044.78;1846003;75;20955;-55
2021/09/16 05:23:39;;;;;;;6.97;5.55;;;;;;;23.28;45.05;100037.52;1823948;75;21124;-55
2021/09/16 05:26:05;;;;;;;7.40;6.15;;;;;;;23.28;44.96;100038.88;1836107;77;21002;-55
2021/09/16 05:28:32;;;;;;;7.50;5.70;;;;;;;23.30;44.85;100036.75;1859025;75;21119;-56
2021/09/16 05:31:00;;;;;;;6.45;5.78;;;;;;;23.32;44.81;100035.97;1857278;76;21034;-55
2021/09/16 05:33:26;;;;;;;9.08;5.80;;;;;;;23.35;44.62;100035.48;1853460;77;20996;-56
2021/09/16 05:35:55;;;;;;;7.80;5.78;;;;;;;23.38;44.50;100031.99;1843623;77;20983;-55
2021/09/16 05:38:21;;;;;;;7.05;5.78;;;;;;;23.40;44.35;100041.52;1838823;76;21063;-55
2021/09/16 05:40:48;;;;;;;7.35;5.25;;;;;;;23.41;44.16;100045.89;1856033;75;21135;-55
2021/09/16 05:43:14;;;;;;;6.92;5.17;;;;;;;23.43;44.09;100038.33;1857530;75;21045;-56
2021/09/16 05:45:41;;;;;;;7.67;5.65;;;;;;;23.46;44.00;100041.07;1858416;75;21062;-59
2021/09/16 05:48:07;;;;;;;6.15;4.97;;;;;;;23.49;44.00;100041.95;1850144;76;21097;-55
2021/09/16 05:50:34;;;;;;;9.10;5.80;;;;;;;23.51;43.76;100041.16;1859199;76;20986;-55
2021/09/16 05:53:00;;;;;;;6.45;5.10;;;;;;;23.53;43.48;100043.09;1858606;77;21077;-56
2021/09/16 05:55:28;;;;;;;9.08;5.10;;;;;;;23.55;43.03;100040.95;1857203;76;21088;-54
2021/09/16 05:57:55;;;;;;;7.67;4.97;;;;;;;23.58;42.73;100041.80;1855638;77;20993;-57
2021/09/16 06:00:23;;;;;;;9.55;4.95;;;;;;;23.60;42.52;100050.51;1850273;75;20974;-56
2021/09/16 06:02:50;;;;;;;7.78;5.00;;;;;;;23.63;42.32;100039.72;1849196;76;21046;-54
2021/09/16 06:05:17;;;;;;;6.10;5.05;;;;;;;23.65;42.04;100043.81;1829043;75;21627;-57
2021/09/16 06:07:43;;;;;;;8.28;5.05;;;;;;;23.67;41.99;100049.81;1843716;75;21555;-55
2021/09/16 06:10:11;;;;;;;9.98;4.78;;;;;;;23.69;41.92;100047.67;1857597;76;21037;-56
2021/09/16 06:12:40;;;;;;;6.65;4.42;;;;;;;23.72;41.97;100047.20;1850055;76;21534;-55
2021/09/16 06:15:08;;;;;;;6.85;4.75;;;;;;;23.75;41.93;100049.39;1848190;75;21024;-56
2021/09/16 06:17:35;;;;;;;6.90;4.87;;;;;;;23.78;41.92;100053.55;1849938;75;21090;-55
2021/09/16 06:20:06;;;;;;;6.60;4.58;;;;;;;23.80;41.82;100054.13;1848175;75;20967;-55
2021/09/16 06:22:34;;;;;;;7.78;4.90;;;;;;;23.81;41.58;100045.44;1850300;75;21032;-55
2021/09/16 06:25:01;;;;;;;7.65;5.20;;;;;;;23.83;41.51;100052.80;1850597;75;20990;-57
2021/09/16 06:27:28;;;;;;;8.53;4.70;;;;;;;23.84;41.47;100050.39;1853942;76;21024;-56
2021/09/16 06:29:56;;;;;;;8.43;5.20;;;;;;;23.87;41.43;100052.04;1855817;75;21028;-55
2021/09/16 06:32:24;;;;;;;7.90;4.92;;;;;;;23.90;41.48;100062.95;1834316;77;21453;-55
2021/09/16 06:34:50;;;;;;;5.35;4.65;;;;;;;23.91;41.33;100064.06;1837727;75;21475;-56
2021/09/16 06:37:18;;;;;;;12.10;5.55;;;;;;;23.93;41.26;100055.14;1849256;75;21072;-56
2021/09/16 06:39:47;;;;;;;10.90;5.78;;;;;;;23.96;41.05;100058.42;1851876;75;21048;-55
2021/09/16 06:42:13;;;;;;;6.78;4.62;;;;;;;23.98;40.97;100057.64;1827643;75;21182;-56
2021/09/16 06:44:40;;;;;;;6.67;5.03;;;;;;;24.00;40.82;100064.99;1862016;75;20961;-55
2021/09/16 06:47:07;;;;;;;6.47;4.42;;;;;;;24.01;40.80;100068.82;1865301;75;21010;-54
2021/09/16 06:49:39;;;;;;;7.90;5.17;;;;;;;24.01;40.64;100062.03;1880065;75;21640;-55
2021/09/16 06:52:02;;;;;;;7.08;4.42;;;;;;;24.05;40.34;100067.77;1788807;79;21022;-56
2021/09/16 06:54:29;;;;;;;8.70;4.37;;;;;;;24.06;40.06;100065.34;1780495;78;21193;-55
2021/09/16 06:56:57;;;;;;;8.05;4.40;;;;;;;24.06;39.59;100060.73;1777812;78;21026;-56
2021/09/16 06:59:24;;;;;;;9.08;4.92;;;;;;;24.06;39.69;100059.38;1775682;78;21112;-54
2021/09/16 07:01:50;;;;;;;11.95;4.92;;;;;;;24.07;39.92;100054.25;1811231;77;20994;-53
2021/09/16 07:04:16;;;;;;;17.98;4.62;;;;;;;24.11;39.71;100060.00;1798977;78;21064;-55
2021/09/16 07:06:44;;;;;;;8.40;4.87;;;;;;;24.13;39.93;100054.60;1795506;77;21135;-54
2021/09/16 07:09:11;;;;;;;7.62;4.50;;;;;;;24.14;40.17;100054.06;1791947;77;21627;-56
2021/09/16 07:11:38;;;;;;;10.00;4.62;;;;;;;24.21;40.07;100065.56;1797598;77;21020;-57
2021/09/16 07:14:07;;;;;;;9.20;4.58;;;;;;;24.24;40.01;100063.72;1793907;77;21037;-56
2021/09/16 07:16:33;;;;;;;8.13;4.40;;;;;;;24.26;39.86;100064.28;1789323;77;21073;-55
2021/09/16 07:18:59;;;;;;;9.73;4.47;;;;;;;24.29;39.71;100061.59;1785849;77;21589;-57
2021/09/16 07:21:26;;;;;;;6.28;4.00;;;;;;;24.33;39.64;100073.59;1791377;78;21077;-57
2021/09/16 07:23:53;;;;;;;10.20;4.40;;;;;;;24.36;39.60;100069.55;1789066;78;21085;-55
2021/09/16 07:26:20;;;;;;;9.03;4.45;;;;;;;24.39;39.45;100076.66;1803908;78;21131;-55
2021/09/16 07:28:46;;;;;;;7.45;4.10;;;;;;;24.41;39.30;100081.30;1807482;78;21045;-56
2021/09/16 07:31:15;;;;;;;7.40;4.47;;;;;;;24.44;39.48;100078.63;1803393;77;21644;-56
2021/09/16 07:33:42;;;;;;;8.63;4.37;;;;;;;24.46;39.30;100078.66;1808415;77;21016;-56
2021/09/16 07:36:08;;;;;;;12.23;4.95;;;;;;;24.49;39.20;100082.75;1792749;77;21046;-56
2021/09/16 07:38:34;;;;;;;12.18;5.08;;;;;;;24.50;39.02;100079.80;1785910;78;21070;-56
2021/09/16 07:41:01;;;;;;;7.37;4.62;;;;;;;24.53;38.88;100080.69;1786469;77;21029;-58
2021/09/16 07:43:27;;;;;;;6.90;4.12;;;;;;;24.53;38.75;100080.69;1785898;77;21108;-56
2021/09/16 07:45:55;;;;;;;10.10;4.85;;;;;;;24.56;38.69;100078.55;1786670;79;21040;-56
2021/09/16 07:48:22;;;;;;;7.03;4.50;;;;;;;24.58;38.67;100081.83;1796956;78;21498;-56
2021/09/16 07:50:50;;;;;;;9.20;4.53;;;;;;;24.59;38.94;100075.30;1792385;77;21002;-56
2021/09/16 07:53:16;;;;;;;8.85;4.60;;;;;;;24.62;38.76;100078.34;1790607;77;21077;-56
2021/09/16 07:55:47;;;;;;;7.92;4.20;;;;;;;24.64;38.43;100075.38;1789976;77;21136;-56
2021/09/16 07:58:12;;;;;;;8.93;4.55;;;;;;;24.66;38.24;100077.30;1797591;78;21621;-56
2021/09/16 08:00:38;;;;;;;8.03;3.70;;;;;;;24.67;38.00;100078.95;1791214;77;20999;-55
2021/09/16 08:03:05;;;;;;;5.95;3.45;;;;;;;24.67;37.81;100077.05;1791176;77;21069;-55
2021/09/16 08:05:31;;;;;;;6.03;3.47;;;;;;;24.70;37.80;100076.53;1786841;78;21034;-58
2021/09/16 08:07:58;;;;;;;8.53;4.37;;;;;;;24.72;37.67;100079.00;1789425;77;21218;-57
2021/09/16 08:10:26;;;;;;;6.83;3.77;;;;;;;24.74;37.69;100075.48;1785225;77;20994;-59
2021/09/16 08:12:52;;;;;;;9.93;3.72;;;;;;;24.76;37.76;100069.27;1786864;77;21065;-58
2021/09/16 08:15:19;;;;;;;8.50;3.80;;;;;;;24.78;37.81;100075.27;1795686;77;21032;-59
2021/09/16 08:17:45;;;;;;;7.42;4.15;;;;;;;24.81;37.75;100076.12;1785759;77;21070;-59
2021/09/16 08:20:14;;;;;;;5.15;3.70;;;;;;;24.83;37.67;100075.88;1801367;77;21134;-60
2021/09/16 08:22:44;;;;;;;5.80;3.77;;;;;;;24.85;37.64;100073.72;1783726;78;21018;-58
2021/09/16 08:25:11;;;;;;;6.70;3.98;;;;;;;24.87;37.66;100072.38;1790512;77;21476;-58
2021/09/16 08:27:37;;;;;;;5.37;3.77;;;;;;;24.90;37.78;100073.80;1792811;79;21077;-56
2021/09/16 08:30:06;;;;;;;6.10;3.75;;;;;;;24.93;37.71;100076.80;1795962;77;21635;-58
2021/09/16 08:32:33;;;;;;;6.12;4.10;;;;;;;24.97;37.71;100082.55;1782753;77;21151;-58
2021/09/16 08:35:00;;;;;;;7.28;4.87;;;;;;;25.00;37.40;100078.52;1787102;77;21085;-58
2021/09/16 08:37:27;;;;;;;6.65;3.60;;;;;;;25.03;37.41;100079.34;1789386;77;21025;-59
2021/09/16 08:39:53;;;;;;;8.68;4.37;;;;;;;25.05;37.19;100072.59;1790501;77;21117;-58
2021/09/16 08:42:28;;;;;;;7.35;4.20;;;;;;;25.08;37.07;100071.25;1795423;77;21066;-59
2021/09/16 08:44:55;;;;;;;5.90;3.47;;;;;;;25.10;36.98;100069.91;1783143;78;21199;-57
2021/09/16 08:47:24;;;;;;;7.72;3.72;;;;;;;25.14;37.14;100072.13;1796585;78;21549;-57
2021/09/16 08:49:52;;;;;;;4.37;3.55;;;;;;;25.16;37.11;100063.98;1787202;77;20979;-57
2021/09/16 08:52:21;;;;;;;4.30;3.75;;;;;;;25.19;37.25;100064.84;1789662;77;21505;-58
2021/09/16 08:54:48;;;;;;;5.50;3.27;;;;;;;25.23;37.10;100066.55;1791592;77;21003;-58
2021/09/16 08:57:16;;;;;;;5.10;3.65;;;;;;;25.26;36.90;100063.30;1788922;77;21205;-58
2021/09/16 08:59:44;;;;;;;7.08;3.55;;;;;;;25.30;36.88;100064.42;1788705;78;21139;-57
2021/09/16 09:02:10;;;;;;;5.53;3.80;;;;;;;25.34;36.78;100063.37;1786458;78;21026;-58
2021/09/16 09:04:37;;;;;;;7.65;4.08;;;;;;;25.37;36.88;100056.88;1793732;77;21565;-58
2021/09/16 09:07:05;;;;;;;10.63;3.90;;;;;;;25.40;36.91;100063.17;1788513;77;21029;-61
2021/09/16 09:09:32;;;;;;;5.95;3.52;;;;;;;25.46;36.94;100062.13;1798122;78;21159;-61
2021/09/16 09:12:13;;;;;;;4.95;3.02;;;;;;;25.52;37.09;100067.08;1794339;77;21083;-59
2021/09/16 09:14:47;;;;;;;5.15;3.55;;;;;;;25.56;37.13;100060.03;1783691;79;21092;-59
2021/09/16 09:17:27;;;;;;;4.37;2.98;;;;;;;25.61;36.87;100064.17;1786588;78;21605;-61
2021/09/16 09:19:58;;;;;;;6.08;3.27;;;;;;;25.63;35.59;100060.64;1785834;78;21382;-61
2021/09/16 09:22:35;;;;;;;4.83;3.20;;;;;;;25.68;35.55;100062.02;1799750;78;22063;-60
2021/09/16 09:25:11;;;;;;;6.30;3.25;;;;;;;25.71;35.67;100057.98;1787044;77;21082;-62
2021/09/16 09:27:52;;;;;;;5.22;3.08;;;;;;;25.76;35.96;100063.99;1793592;78;21074;-61
2021/09/16 09:30:22;;;;;;;3.62;3.20;;;;;;;25.80;35.95;100059.66;1785452;78;21069;-60
2021/09/16 09:33:00;;;;;;;3.87;2.65;;;;;;;25.84;35.88;100064.31;1783575;78;21134;-60
2021/09/16 09:35:37;;;;;;;3.62;2.80;;;;;;;25.88;36.31;100062.73;1791561;79;21098;-60
2021/09/16 09:38:26;;;;;;;5.45;2.98;;;;;;;25.92;36.49;100054.87;1790504;78;21030;-60
2021/09/16 09:40:56;;;;;;;6.33;2.62;;;;;;;25.96;36.15;100057.37;1806745;77;21037;-60
2021/09/16 09:43:26;;;;;;;4.20;3.10;;;;;;;25.99;35.88;100045.13;1783369;78;20991;-61
2021/09/16 09:46:10;;;;;;;3.77;2.65;;;;;;;26.01;35.34;100051.13;1817061;77;21028;-60
2021/09/16 09:48:44;;;;;;;6.87;3.12;;;;;;;26.03;35.51;100045.69;1774617;78;21156;-60
2021/09/16 09:51:13;;;;;;;5.25;3.02;;;;;;;26.07;35.51;100043.27;1779811;78;21010;-60
2021/09/16 09:53:44;;;;;;;5.45;2.47;;;;;;;26.09;35.28;100037.83;1791088;79;21046;-60
2021/09/16 09:56:16;;;;;;;;;;;;;;;26.13;35.11;100033.22;1784939;79;21066;-60
2021/09/16 09:58:43;;;;;;;3.92;2.70;;;;;;;26.16;34.83;100032.70;1772262;79;20168;-60
2021/09/16 10:01:34;;;;;;;4.83;2.77;;;;;;;26.15;34.67;100033.78;1780608;79;21977;-61
2021/09/16 10:04:28;;;;;;;4.35;2.30;;;;;;;26.17;34.84;100032.42;1776088;79;21065;-64
2021/09/16 10:06:55;;;;;;;3.30;2.52;;;;;;;26.23;34.84;100036.83;1754306;81;21002;-63
2021/09/16 10:09:22;;;;;;;4.72;2.62;;;;;;;26.28;34.58;100030.58;1812910;77;21065;-64
2021/09/16 10:11:51;;;;;;;4.25;2.75;;;;;;;26.31;34.55;100027.86;1793731;79;21555;-63
2021/09/16 10:14:17;;;;;;;4.17;2.60;;;;;;;26.35;34.24;100030.33;1801568;78;21123;-61
2021/09/16 10:16:44;;;;;;;2.75;2.37;;;;;;;26.38;33.99;100023.80;1814399;78;21072;-61
2021/09/16 10:19:12;;;;;;;2.55;2.35;;;;;;;26.41;33.53;100021.11;1798438;78;20982;-60
2021/09/16 10:21:39;;;;;;;3.08;2.35;;;;;;;26.43;33.30;100021.11;1813788;78;21046;-59
2021/09/16 10:24:07;;;;;;;4.42;2.45;;;;;;;26.45;33.22;100018.12;1807505;78;21025;-60
2021/09/16 10:26:43;;;;;;;3.50;2.15;;;;;;;26.48;33.37;100018.42;1809492;78;21149;-60
2021/09/16 10:29:33;;;;;;;2.65;2.37;;;;;;;26.53;33.30;100015.44;1799997;78;21063;-59
2021/09/16 10:32:11;;;;;;;2.92;2.40;;;;;;;26.56;33.13;100012.16;1810356;78;21069;-60
2021/09/16 10:35:00;;;;;;;4.55;3.10;;;;;;;26.59;33.04;100015.20;1802933;78;21005;-61
2021/09/16 10:37:20;;;;;;;4.87;2.30;;;;;;;26.63;33.23;100012.21;1789784;78;21091;-62
2021/09/16 10:39:48;;;;;;;4.22;2.60;;;;;;;26.70;33.37;100013.34;1806216;78;21304;-63
2021/09/16 10:42:17;;;;;;;6.60;2.80;;;;;;;26.76;33.60;100011.45;1806565;78;21481;-66
2021/09/16 10:44:45;;;;;;;5.30;2.83;;;;;;;26.81;33.98;100012.28;1808245;78;21064;-59
2021/09/16 10:47:19;;;;;;;7.58;2.50;;;;;;;26.88;34.47;100009.28;1771060;78;21060;-60
2021/09/16 10:49:48;;;;;;;6.45;2.20;;;;;;;26.93;34.55;100007.13;1810572;78;21542;-60
2021/09/16 10:52:19;;;;;;;4.92;2.22;;;;;;;26.98;34.76;100003.83;1808065;78;21604;-61
2021/09/16 10:54:52;;;;;;;4.70;2.67;;;;;;;27.04;34.39;100006.86;1799630;78;21053;-62
2021/09/16 10:57:38;;;;;;;6.30;3.12;;;;;;;27.09;34.25;100009.32;1806220;78;21552;-62
2021/09/16 11:00:07;;;;;;;5.22;2.52;;;;;;;27.14;34.31;100010.67;1811658;78;21072;-60
2021/09/16 11:02:48;;;;;;;4.25;2.60;;;;;;;27.20;34.46;100007.69;1807435;78;21084;-60
2021/09/16 11:05:18;;;;;;;3.08;2.70;;;;;;;27.25;34.54;100003.64;1813867;78;21143;-61
2021/09/16 11:07:49;;;;;;;3.25;2.50;;;;;;;27.31;34.56;100001.70;1794845;78;21036;-61
2021/09/16 11:10:29;;;;;;;4.45;2.60;;;;;;;27.37;34.59;99997.91;1804012;77;21103;-61
2021/09/16 11:13:05;;;;;;;6.45;2.85;;;;;;;27.45;34.53;99995.17;1802864;77;21048;-61
2021/09/16 11:15:35;;;;;;;4.72;2.40;;;;;;;27.50;34.46;99991.06;1776367;77;21071;-61
2021/09/16 11:18:07;;;;;;;5.80;2.85;;;;;;;27.55;34.40;99995.71;1802560;77;21732;-62
2021/09/16 11:20:34;;;;;;;;;;;;;;;27.57;34.35;99992.16;1813362;77;20980;-62
2021/09/16 11:23:03;;;;;;;6.78;2.65;;;;;;;27.57;34.34;99994.33;1812376;77;20222;-58
2021/09/16 11:25:41;;;;;;;4.28;2.75;;;;;;;27.54;34.39;99994.06;1804720;77;21508;-63
2021/09/16 11:28:07;;;;;;;3.62;2.87;;;;;;;27.55;34.30;99991.06;1806684;77;21111;-62
2021/09/16 11:30:38;;;;;;;3.30;2.55;;;;;;;27.59;34.27;99995.42;1811679;77;23319;-62